Time;durP1;ratioP1;P1;durP2;ratioP2;P2;SDS_P1;SDS_P2;PMS_P1;PMS_P2;Temp;Humidity;BMP_temperature;BMP_pressure;BME280_temperature;BME280_humidity;BME280_pressure;Samples;Min_cycle;Max_cycle;Signal;HPM_P1;HPM_P2
2022/10/02 00:01:56;;;;;;;3.30;0.95;;;12.40;99.90;;;;;;4980503;28;20045;-69
2022/10/02 00:04:31;;;;;;;9.55;1.33;;;12.40;99.90;;;;;;4978565;28;20134;-70
2022/10/02 00:07:03;;;;;;;10.15;0.90;;;12.40;99.90;;;;;;4986429;28;20053;-70
2022/10/02 00:09:37;;;;;;;7.68;0.60;;;12.40;99.90;;;;;;4980248;28;20035;-70
2022/10/02 00:12:07;;;;;;;3.60;0.70;;;12.40;99.90;;;;;;4982078;28;20149;-69
2022/10/02 00:14:36;;;;;;;10.37;0.90;;;12.40;99.90;;;;;;4983957;28;20053;-73
2022/10/02 00:17:03;;;;;;;6.28;0.65;;;12.50;99.90;;;;;;4983978;28;20030;-70
2022/10/02 00:19:29;;;;;;;4.72;1.05;;;12.50;99.90;;;;;;4981055;28;20435;-70
2022/10/02 00:21:57;;;;;;;6.38;1.40;;;12.50;99.90;;;;;;4988015;28;20034;-69
2022/10/02 00:24:27;;;;;;;7.53;0.95;;;12.40;99.90;;;;;;4979064;28;20054;-70
2022/10/02 00:26:59;;;;;;;7.45;0.80;;;12.40;99.90;;;;;;4986123;28;20054;-70
2022/10/02 00:30:00;;;;;;;2.97;0.40;;;12.40;99.90;;;;;;4983818;28;20049;-70
2022/10/02 00:32:30;;;;;;;;;;;12.40;99.90;;;;;;4957327;28;20125;-69
2022/10/02 00:35:17;;;;;;;7.15;1.17;;;12.40;99.90;;;;;;4975845;28;19953;-70
2022/10/02 00:38:14;;;;;;;8.10;1.33;;;12.40;99.90;;;;;;4961025;28;20038;-68
2022/10/02 00:41:15;;;;;;;7.97;1.63;;;12.40;99.90;;;;;;4977181;28;20027;-70
2022/10/02 00:43:54;;;;;;;7.45;1.10;;;12.50;99.90;;;;;;4972907;28;20090;-70
2022/10/02 00:46:48;;;;;;;6.15;1.10;;;12.60;99.90;;;;;;4978835;28;20065;-69
2022/10/02 00:49:35;;;;;;;7.10;1.27;;;12.60;99.90;;;;;;4981654;28;20041;-70
2022/10/02 00:52:16;;;;;;;17.92;1.83;;;12.70;99.90;;;;;;4962742;28;20380;-70
2022/10/02 00:54:52;;;;;;;;;;;12.70;99.90;;;;;;4976198;28;20428;-69
2022/10/02 00:57:23;;;;;;;5.03;1.35;;;12.70;99.90;;;;;;4976097;28;19921;-69
2022/10/02 01:00:01;;;;;;;8.75;1.15;;;12.70;99.90;;;;;;4983234;28;20053;-70
2022/10/02 01:02:30;;;;;;;7.88;1.75;;;12.80;99.90;;;;;;4978304;28;20069;-69
2022/10/02 01:04:57;;;;;;;7.45;1.50;;;12.80;99.90;;;;;;4977970;28;20101;-70
2022/10/02 01:07:23;;;;;;;8.45;1.73;;;12.80;99.90;;;;;;4984943;28;20130;-69
2022/10/02 01:09:49;;;;;;;10.98;2.05;;;12.80;99.90;;;;;;4980831;28;20065;-69
2022/10/02 01:12:15;;;;;;;15.75;1.55;;;12.80;99.90;;;;;;4980163;28;20418;-70
2022/10/02 01:14:41;;;;;;;19.17;1.58;;;12.90;99.90;;;;;;4980094;28;20035;-70
2022/10/02 01:17:30;;;;;;;10.15;1.50;;;12.90;99.90;;;;;;4980156;28;20042;-69
2022/10/02 01:19:57;;;;;;;11.02;1.33;;;12.90;99.90;;;;;;4987759;28;20043;-70
2022/10/02 01:22:28;;;;;;;7.75;1.65;;;12.90;99.90;;;;;;4981971;28;20042;-70
2022/10/02 01:24:55;;;;;;;8.15;1.48;;;12.90;99.90;;;;;;4980925;28;22526;-69
2022/10/02 01:27:22;;;;;;;14.73;1.70;;;13.00;99.90;;;;;;4984268;28;20073;-75
2022/10/02 01:30:00;;;;;;;16.20;1.83;;;13.00;99.90;;;;;;4982765;28;20066;-71
2022/10/02 01:32:27;;;;;;;7.00;1.42;;;13.00;99.90;;;;;;4983465;28;20027;-70
2022/10/02 01:34:54;;;;;;;14.45;1.25;;;13.10;99.90;;;;;;4982807;28;20302;-69
2022/10/02 01:37:21;;;;;;;13.07;1.30;;;13.00;99.90;;;;;;4975591;28;20122;-70
2022/10/02 01:39:47;;;;;;;9.75;2.20;;;13.00;99.90;;;;;;4982774;28;20073;-68
2022/10/02 01:42:13;;;;;;;12.80;2.40;;;13.00;99.90;;;;;;4979281;28;20045;-69
2022/10/02 01:44:39;;;;;;;8.73;1.55;;;12.90;99.90;;;;;;4982341;28;20395;-70
2022/10/02 01:47:08;;;;;;;15.90;2.10;;;13.00;99.90;;;;;;4978142;28;20569;-70
2022/10/02 01:49:54;;;;;;;10.52;2.15;;;13.00;99.90;;;;;;4982239;28;20043;-71
2022/10/02 01:52:44;;;;;;;9.15;1.52;;;12.90;99.90;;;;;;4979661;28;20135;-69
2022/10/02 01:55:22;;;;;;;11.95;1.83;;;12.90;99.90;;;;;;4968294;28;20785;-70
2022/10/02 01:57:53;;;;;;;14.45;1.67;;;12.90;99.90;;;;;;4976888;28;20031;-70
2022/10/02 02:00:23;;;;;;;10.35;1.33;;;12.90;99.90;;;;;;4979919;28;20556;-70
2022/10/02 02:03:14;;;;;;;11.77;2.10;;;12.90;99.90;;;;;;4980256;28;20053;-70
2022/10/02 02:05:58;;;;;;;16.77;2.42;;;12.90;99.90;;;;;;4980283;28;20453;-70
2022/10/02 02:08:50;;;;;;;13.80;2.05;;;13.00;99.90;;;;;;4976694;28;20073;-69
2022/10/02 02:11:19;;;;;;;11.88;1.50;;;13.00;99.90;;;;;;4951743;28;20130;-71
2022/10/02 02:14:09;;;;;;;16.13;2.63;;;13.00;99.90;;;;;;4979357;28;20038;-70
2022/10/02 02:16:40;;;;;;;9.43;1.63;;;13.00;99.90;;;;;;4970168;28;20103;-70
2022/10/02 02:19:12;;;;;;;9.18;1.02;;;13.00;99.90;;;;;;4978076;28;20042;-70
2022/10/02 02:21:45;;;;;;;16.30;1.83;;;13.00;99.90;;;;;;4980336;28;20185;-69
2022/10/02 02:24:19;;;;;;;11.75;1.45;;;13.00;99.90;;;;;;4977004;28;20035;-70
2022/10/02 02:26:46;;;;;;;11.05;1.48;;;13.00;99.90;;;;;;4978936;28;20042;-69
2022/10/02 02:29:16;;;;;;;13.13;2.05;;;13.00;99.90;;;;;;4976336;28;20031;-70
2022/10/02 02:31:51;;;;;;;12.32;1.33;;;13.00;99.90;;;;;;4976047;28;20114;-69
2022/10/02 02:34:26;;;;;;;17.92;1.95;;;13.00;99.90;;;;;;4981994;28;20022;-69
2022/10/02 02:36:58;;;;;;;14.85;1.58;;;13.10;99.90;;;;;;4981053;28;20034;-70
2022/10/02 02:39:35;;;;;;;13.65;2.10;;;13.00;99.90;;;;;;4973127;28;20058;-69
2022/10/02 02:42:06;;;;;;;12.27;1.50;;;13.00;99.90;;;;;;4981496;28;20125;-70
2022/10/02 02:44:34;;;;;;;;;;;13.00;99.90;;;;;;4981245;28;20399;-70
2022/10/02 02:47:06;;;;;;;14.10;1.33;;;13.00;99.90;;;;;;4976325;28;19918;-69
2022/10/02 02:49:40;;;;;;;14.43;1.30;;;13.00;99.90;;;;;;4978715;28;20031;-69
2022/10/02 02:52:12;;;;;;;17.05;2.40;;;13.00;99.90;;;;;;4981287;28;20443;-69
2022/10/02 02:54:49;;;;;;;13.10;1.50;;;13.00;99.90;;;;;;4976836;28;20145;-69
2022/10/02 02:57:20;;;;;;;11.95;2.55;;;12.90;99.90;;;;;;4978996;28;20447;-70
2022/10/02 02:59:48;;;;;;;13.15;1.70;;;12.90;99.90;;;;;;4974496;28;20038;-70
2022/10/02 03:02:14;;;;;;;9.32;1.52;;;12.80;99.90;;;;;;4983162;28;20630;-70
2022/10/02 03:04:39;;;;;;;15.70;1.83;;;12.80;99.90;;;;;;4977547;28;20097;-70
2022/10/02 03:07:08;;;;;;;20.80;2.63;;;12.80;99.90;;;;;;4981347;28;20043;-71
2022/10/02 03:09:36;;;;;;;9.85;1.25;;;12.80;99.90;;;;;;4983084;28;20068;-70
2022/10/02 03:12:20;;;;;;;8.95;1.05;;;12.70;99.90;;;;;;4981539;28;20038;-70
2022/10/02 03:14:59;;;;;;;14.13;1.73;;;12.70;99.90;;;;;;4984042;28;20038;-69
2022/10/02 03:17:32;;;;;;;10.93;1.35;;;12.70;99.90;;;;;;4981449;28;20090;-69
2022/10/02 03:20:11;;;;;;;10.48;1.35;;;12.70;99.90;;;;;;4986961;28;20471;-71
2022/10/02 03:22:46;;;;;;;9.55;1.33;;;12.70;99.90;;;;;;4983844;28;20056;-68
2022/10/02 03:25:32;;;;;;;13.20;1.40;;;12.70;99.90;;;;;;4983474;28;20108;-69
2022/10/02 03:28:09;;;;;;;15.93;1.27;;;12.70;99.90;;;;;;4973977;28;20069;-69
2022/10/02 03:30:37;;;;;;;16.73;2.72;;;12.80;99.90;;;;;;4985195;28;20092;-72
2022/10/02 03:33:06;;;;;;;14.52;1.50;;;12.70;99.90;;;;;;4984927;28;20039;-70
2022/10/02 03:35:32;;;;;;;16.60;2.08;;;12.70;99.90;;;;;;4980848;28;20034;-70
2022/10/02 03:38:03;;;;;;;10.55;2.05;;;12.60;99.90;;;;;;4976258;28;20086;-69
2022/10/02 03:40:29;;;;;;;11.57;1.45;;;12.60;99.90;;;;;;4972326;28;20027;-70
2022/10/02 03:42:57;;;;;;;7.20;1.10;;;12.60;99.90;;;;;;4984973;28;20045;-70
2022/10/02 03:45:24;;;;;;;16.55;2.10;;;12.60;99.90;;;;;;4977087;28;20058;-69
2022/10/02 03:47:49;;;;;;;18.20;3.13;;;12.50;99.90;;;;;;4979423;28;20117;-70
2022/10/02 03:50:15;;;;;;;9.55;1.30;;;12.50;99.90;;;;;;4979523;28;20472;-69
2022/10/02 03:52:41;;;;;;;10.85;1.15;;;12.50;99.90;;;;;;4987298;28;20034;-69
2022/10/02 03:55:27;;;;;;;13.82;2.17;;;12.50;99.90;;;;;;4982624;28;20042;-70
2022/10/02 03:57:53;;;;;;;19.02;2.58;;;12.50;99.90;;;;;;4983801;28;20049;-69
2022/10/02 04:00:30;;;;;;;17.60;1.60;;;12.50;99.90;;;;;;4975558;28;20403;-69
2022/10/02 04:03:09;;;;;;;13.50;1.83;;;12.50;99.90;;;;;;4982053;28;20088;-69
2022/10/02 04:05:47;;;;;;;10.13;1.20;;;12.50;99.90;;;;;;4981099;28;20034;-70
2022/10/02 04:08:19;;;;;;;17.55;2.55;;;12.50;99.90;;;;;;4983191;28;20049;-70
2022/10/02 04:11:06;;;;;;;7.65;1.98;;;12.50;99.90;;;;;;4976815;28;20039;-70
2022/10/02 04:13:32;;;;;;;7.85;1.63;;;12.50;99.90;;;;;;4978466;28;20034;-70
2022/10/02 04:16:16;;;;;;;13.10;1.50;;;12.50;99.90;;;;;;4980108;28;20038;-69
2022/10/02 04:18:44;;;;;;;5.63;1.63;;;12.50;99.90;;;;;;4985291;28;20138;-69
2022/10/02 04:21:25;;;;;;;11.25;1.75;;;12.50;99.90;;;;;;4980326;28;20051;-69
2022/10/02 04:24:32;;;;;;;10.85;2.63;;;12.50;99.90;;;;;;4982148;28;20050;-69
2022/10/02 04:27:05;;;;;;;9.18;1.15;;;12.40;99.90;;;;;;4973802;28;20511;-68
2022/10/02 04:29:42;;;;;;;6.93;0.93;;;12.40;99.90;;;;;;4981841;28;20027;-69
2022/10/02 04:32:14;;;;;;;13.55;1.77;;;12.40;99.90;;;;;;4981450;28;20060;-70
2022/10/02 04:34:40;;;;;;;8.38;0.90;;;12.30;99.90;;;;;;4982262;28;20034;-69
2022/10/02 04:37:37;;;;;;;11.10;1.55;;;12.30;99.90;;;;;;4981700;28;20121;-69
2022/10/02 04:40:31;;;;;;;10.07;1.33;;;12.30;99.90;;;;;;4981940;28;20479;-69
2022/10/02 04:43:31;;;;;;;9.88;1.30;;;12.20;99.90;;;;;;4975591;28;20034;-71
2022/10/02 04:46:03;;;;;;;13.07;1.02;;;12.20;99.90;;;;;;4976600;28;20125;-70
2022/10/02 04:48:47;;;;;;;8.90;1.88;;;12.20;99.90;;;;;;4979350;28;20035;-70
2022/10/02 04:51:33;;;;;;;8.65;1.50;;;12.10;99.90;;;;;;4979958;28;20137;-70
2022/10/02 04:54:29;;;;;;;14.95;1.25;;;12.10;99.90;;;;;;4976209;28;20038;-71
2022/10/02 04:57:13;;;;;;;4.45;1.35;;;12.10;99.90;;;;;;4965009;28;21669;-70
2022/10/02 05:00:08;;;;;;;8.05;1.00;;;12.20;99.90;;;;;;4979659;28;20041;-69
2022/10/02 05:02:52;;;;;;;9.23;1.30;;;12.20;99.90;;;;;;4969900;28;20042;-69
2022/10/02 05:05:33;;;;;;;16.27;1.73;;;12.20;99.90;;;;;;4977833;28;20069;-69
2022/10/02 05:08:04;;;;;;;7.90;1.58;;;12.20;99.90;;;;;;4978893;28;20586;-70
2022/10/02 05:10:45;;;;;;;7.28;1.02;;;12.10;99.90;;;;;;4979700;28;20038;-69
2022/10/02 05:13:29;;;;;;;;;;;12.20;99.90;;;;;;4982110;28;20054;-70
2022/10/02 05:16:22;;;;;;;8.55;1.77;;;12.20;99.90;;;;;;4979782;28;19914;-69
2022/10/02 05:19:19;;;;;;;13.27;1.40;;;12.20;99.90;;;;;;4979493;28;20042;-71
2022/10/02 05:22:16;;;;;;;14.27;1.85;;;12.20;99.90;;;;;;4983106;28;20406;-70
2022/10/02 05:25:01;;;;;;;14.77;2.22;;;12.30;99.90;;;;;;4980119;28;20045;-70
2022/10/02 05:27:51;;;;;;;9.60;1.60;;;12.30;99.90;;;;;;4971402;28;20046;-69
2022/10/02 05:30:17;;;;;;;;;;;12.40;99.90;;;;;;4974568;28;20053;-70
2022/10/02 05:32:55;;;;;;;15.93;1.42;;;12.40;99.90;;;;;;4976838;28;19918;-69
2022/10/02 05:35:30;;;;;;;10.60;1.40;;;12.30;99.90;;;;;;4971125;28;20506;-70
2022/10/02 05:38:45;;;;;;;10.57;1.33;;;12.30;99.90;;;;;;4976508;28;20042;-69
2022/10/02 05:41:24;;;;;;;9.00;1.38;;;12.30;99.90;;;;;;4951441;28;20039;-69
2022/10/02 05:44:07;;;;;;;5.47;1.48;;;12.20;99.90;;;;;;4971683;28;20034;-68
2022/10/02 05:46:54;;;;;;;12.68;1.73;;;12.20;99.90;;;;;;4978670;28;20093;-70
2022/10/02 05:49:27;;;;;;;13.60;1.98;;;12.10;99.90;;;;;;4985861;28;20085;-69
2022/10/02 05:51:59;;;;;;;10.23;1.75;;;12.10;99.90;;;;;;4982618;28;20871;-70
2022/10/02 05:54:51;;;;;;;6.85;1.45;;;12.00;99.90;;;;;;4977231;28;20109;-70
2022/10/02 05:57:31;;;;;;;9.00;1.38;;;12.00;99.90;;;;;;4982260;28;20031;-69
2022/10/02 06:00:24;;;;;;;14.43;2.00;;;12.00;99.90;;;;;;4979213;28;20042;-71
2022/10/02 06:03:11;;;;;;;14.07;1.42;;;12.00;99.90;;;;;;4979281;28;20072;-70
2022/10/02 06:06:01;;;;;;;13.13;1.35;;;12.00;99.90;;;;;;4979075;28;20080;-70
2022/10/02 06:08:42;;;;;;;9.37;1.27;;;12.00;99.90;;;;;;4972444;28;20054;-70
2022/10/02 06:11:48;;;;;;;11.70;2.10;;;12.00;99.90;;;;;;4974691;28;20121;-71
2022/10/02 06:14:28;;;;;;;13.88;1.67;;;12.10;99.90;;;;;;4948447;28;20039;-70
2022/10/02 06:16:59;;;;;;;9.25;1.67;;;12.10;99.90;;;;;;4975089;28;20053;-69
2022/10/02 06:19:51;;;;;;;23.00;1.80;;;12.10;99.90;;;;;;4987635;28;20085;-69
2022/10/02 06:22:25;;;;;;;7.57;2.15;;;12.10;99.90;;;;;;4962732;28;20045;-70
2022/10/02 06:25:00;;;;;;;12.32;1.75;;;12.10;99.90;;;;;;4984543;28;20102;-70
2022/10/02 06:27:45;;;;;;;12.35;2.22;;;12.20;99.90;;;;;;4978307;28;20562;-70
2022/10/02 06:30:17;;;;;;;9.57;1.70;;;12.20;99.90;;;;;;4981055;28;20046;-69
2022/10/02 06:32:52;;;;;;;12.63;1.63;;;12.20;99.90;;;;;;4983909;28;20201;-70
2022/10/02 06:35:36;;;;;;;8.52;1.17;;;12.20;99.90;;;;;;4979925;28;20038;-69
2022/10/02 06:38:29;;;;;;;12.98;1.88;;;12.20;99.90;;;;;;4982600;28;20133;-70
2022/10/02 06:41:21;;;;;;;11.43;1.67;;;12.20;99.90;;;;;;4991463;28;20039;-70
2022/10/02 06:44:07;;;;;;;10.82;2.15;;;12.30;99.90;;;;;;4975198;28;20041;-70
2022/10/02 06:46:48;;;;;;;11.52;2.53;;;12.20;99.90;;;;;;4978271;28;20045;-69
2022/10/02 06:49:26;;;;;;;6.53;1.35;;;12.30;99.90;;;;;;4977637;28;20059;-68
2022/10/02 06:51:58;;;;;;;14.13;1.13;;;12.30;99.90;;;;;;4980950;28;20037;-69
2022/10/02 06:54:52;;;;;;;12.95;1.92;;;12.40;99.90;;;;;;4978455;28;20498;-68
2022/10/02 06:57:20;;;;;;;7.30;1.13;;;12.40;99.90;;;;;;4979449;28;20125;-69
2022/10/02 07:00:02;;;;;;;11.63;1.40;;;12.50;99.90;;;;;;4978726;28;20085;-69
2022/10/02 07:02:52;;;;;;;9.95;1.85;;;12.60;99.90;;;;;;4981307;28;20484;-71
2022/10/02 07:05:36;;;;;;;13.02;1.08;;;12.60;99.90;;;;;;4974476;28;20042;-69
2022/10/02 07:08:10;;;;;;;9.02;0.90;;;12.70;99.90;;;;;;4979986;28;20057;-71
2022/10/02 07:10:54;;;;;;;10.10;1.42;;;12.80;99.90;;;;;;4979029;28;20031;-69
2022/10/02 07:13:20;;;;;;;8.82;0.93;;;12.80;99.90;;;;;;4978669;28;20042;-70
2022/10/02 07:16:07;;;;;;;9.25;2.03;;;12.90;99.90;;;;;;4978298;28;20045;-70
2022/10/02 07:18:42;;;;;;;8.02;0.98;;;13.00;99.90;;;;;;4975572;28;20070;-70
2022/10/02 07:21:37;;;;;;;15.18;2.85;;;13.00;99.90;;;;;;4959374;28;20038;-69
2022/10/02 07:24:40;;;;;;;12.48;2.15;;;13.10;99.90;;;;;;4973822;28;20097;-69
2022/10/02 07:27:27;;;;;;;3.88;0.82;;;13.20;99.90;;;;;;4974427;28;20530;-70
2022/10/02 07:30:10;;;;;;;12.32;0.98;;;13.20;99.90;;;;;;4972364;28;20034;-69
2022/10/02 07:32:39;;;;;;;8.32;0.90;;;13.20;99.90;;;;;;4977879;28;20031;-69
2022/10/02 07:35:16;;;;;;;7.28;1.23;;;13.30;99.90;;;;;;4975680;28;20041;-69
2022/10/02 07:37:51;;;;;;;8.30;1.33;;;13.40;99.90;;;;;;4971640;28;20065;-70
2022/10/02 07:40:28;;;;;;;5.18;0.70;;;13.40;99.90;;;;;;4980203;28;20046;-70
2022/10/02 07:43:35;;;;;;;8.27;1.20;;;13.40;99.90;;;;;;4981995;28;20043;-69
2022/10/02 07:46:09;;;;;;;4.50;1.23;;;13.50;99.90;;;;;;4971663;28;20537;-69
2022/10/02 07:48:59;;;;;;;6.95;1.17;;;13.50;99.90;;;;;;4974628;28;20062;-69
2022/10/02 07:51:48;;;;;;;5.25;1.38;;;13.60;99.90;;;;;;4977103;28;20042;-70
2022/10/02 07:54:35;;;;;;;6.15;1.52;;;13.70;99.90;;;;;;4978193;28;20410;-69
2022/10/02 07:57:15;;;;;;;7.93;1.33;;;13.80;99.90;;;;;;4982280;28;20414;-69
2022/10/02 07:59:42;;;;;;;;;;;13.80;99.90;;;;;;4975625;28;20461;-71
2022/10/02 08:02:24;;;;;;;8.45;1.45;;;13.90;99.90;;;;;;4986427;28;19918;-71
2022/10/02 08:04:57;;;;;;;5.30;1.15;;;14.00;99.90;;;;;;4988670;28;20521;-69
2022/10/02 08:07:23;;;;;;;12.88;1.20;;;14.10;99.90;;;;;;4987328;28;20034;-69
2022/10/02 08:09:52;;;;;;;10.23;1.10;;;14.20;99.90;;;;;;4985502;28;20084;-71
2022/10/02 08:12:42;;;;;;;10.93;1.52;;;14.30;99.90;;;;;;4983405;28;20038;-69
2022/10/02 08:15:16;;;;;;;6.82;0.90;;;14.30;99.90;;;;;;4982442;28;20077;-69
2022/10/02 08:17:54;;;;;;;8.57;1.52;;;14.30;99.90;;;;;;4975391;28;20122;-70
2022/10/02 08:20:38;;;;;;;6.47;1.20;;;14.40;99.90;;;;;;4979286;28;20487;-69
2022/10/02 08:23:10;;;;;;;7.57;1.10;;;14.50;99.90;;;;;;4979011;28;20026;-70
2022/10/02 08:25:42;;;;;;;10.25;1.10;;;14.50;99.90;;;;;;4979713;28;20042;-69
2022/10/02 08:28:25;;;;;;;5.28;1.00;;;14.60;99.90;;;;;;4982928;28;20049;-69
2022/10/02 08:30:51;;;;;;;8.80;1.10;;;14.60;99.90;;;;;;4972289;28;20162;-71
2022/10/02 08:33:21;;;;;;;13.90;1.33;;;14.60;99.90;;;;;;4980831;28;20117;-71
2022/10/02 08:35:55;;;;;;;10.75;1.00;;;14.70;99.90;;;;;;4984009;28;20042;-69
2022/10/02 08:38:30;;;;;;;7.72;1.60;;;14.80;99.90;;;;;;4983280;28;20045;-68
2022/10/02 08:41:36;;;;;;;5.82;1.23;;;14.90;99.90;;;;;;4978382;28;20115;-70
2022/10/02 08:44:20;;;;;;;8.57;0.68;;;15.00;99.90;;;;;;4975819;28;20122;-71
2022/10/02 08:47:20;;;;;;;6.15;0.90;;;15.10;99.90;;;;;;4981304;28;20042;-71
2022/10/02 08:50:07;;;;;;;11.25;1.27;;;15.20;99.90;;;;;;4974011;28;20129;-69
2022/10/02 08:52:57;;;;;;;7.65;1.08;;;15.20;99.90;;;;;;4982878;28;20031;-68
2022/10/02 08:55:52;;;;;;;9.13;1.13;;;15.20;99.90;;;;;;4982840;28;20038;-71
2022/10/02 08:58:43;;;;;;;7.93;1.33;;;15.30;99.90;;;;;;4986927;28;20444;-69
2022/10/02 09:01:46;;;;;;;9.40;0.77;;;15.40;99.90;;;;;;4983314;28;20070;-72
2022/10/02 09:04:30;;;;;;;7.53;1.05;;;15.50;99.90;;;;;;4981206;28;20033;-69
2022/10/02 09:07:04;;;;;;;8.27;1.33;;;15.50;99.90;;;;;;4978135;28;20126;-69
2022/10/02 09:09:41;;;;;;;7.88;1.10;;;15.60;99.90;;;;;;4982601;28;20062;-69
2022/10/02 09:12:26;;;;;;;6.78;1.13;;;15.60;99.90;;;;;;4980683;28;20057;-68
2022/10/02 09:14:56;;;;;;;10.45;1.00;;;15.60;99.90;;;;;;4982879;28;20027;-69
2022/10/02 09:17:41;;;;;;;10.15;1.15;;;15.60;99.90;;;;;;4976665;28;20588;-69
2022/10/02 09:20:28;;;;;;;10.95;1.65;;;15.60;99.90;;;;;;4979219;28;20525;-71
2022/10/02 09:23:11;;;;;;;13.35;1.27;;;15.60;99.90;;;;;;4980183;28;20035;-69
2022/10/02 09:26:01;;;;;;;4.40;0.60;;;15.60;99.90;;;;;;4979123;28;20117;-69
2022/10/02 09:28:51;;;;;;;8.27;1.58;;;15.70;99.90;;;;;;4983127;28;20043;-69
2022/10/02 09:31:25;;;;;;;10.77;1.20;;;15.70;99.90;;;;;;4978979;28;20050;-68
2022/10/02 09:34:04;;;;;;;7.78;1.50;;;15.80;99.90;;;;;;4978089;28;20081;-72
2022/10/02 09:37:01;;;;;;;8.18;1.17;;;15.80;99.90;;;;;;4983032;28;20045;-69
2022/10/02 09:39:35;;;;;;;6.40;0.75;;;15.80;99.90;;;;;;4980217;28;20509;-68
2022/10/02 09:42:22;;;;;;;5.32;0.75;;;15.80;99.90;;;;;;4974970;28;20031;-68
2022/10/02 09:44:55;;;;;;;4.93;1.05;;;16.00;99.90;;;;;;4978287;28;20133;-69
2022/10/02 09:47:36;;;;;;;5.55;1.15;;;16.20;99.90;;;;;;4985302;28;20039;-71
2022/10/02 09:50:21;;;;;;;14.52;1.08;;;16.50;99.90;;;;;;4978528;28;20054;-69
2022/10/02 09:52:46;;;;;;;14.88;1.42;;;16.70;99.90;;;;;;4978405;28;20132;-72
2022/10/02 09:55:57;;;;;;;12.10;1.17;;;16.90;99.90;;;;;;4979856;28;20107;-70
2022/10/02 09:58:42;;;;;;;7.90;0.95;;;17.00;99.90;;;;;;4968725;28;20034;-68
2022/10/02 10:01:29;;;;;;;6.82;0.80;;;17.10;99.90;;;;;;4979207;28;20649;-68
2022/10/02 10:04:11;;;;;;;3.88;0.82;;;17.10;99.90;;;;;;4977408;28;20030;-71
2022/10/02 10:07:24;;;;;;;4.93;0.95;;;17.00;99.90;;;;;;4980859;28;20027;-70
2022/10/02 10:10:18;;;;;;;9.85;1.55;;;16.80;99.90;;;;;;4972901;28;20050;-71
2022/10/02 10:13:11;;;;;;;10.90;1.30;;;16.60;99.90;;;;;;4977541;28;20039;-69
2022/10/02 10:16:13;;;;;;;3.88;1.42;;;16.50;99.90;;;;;;4976016;28;20407;-69
2022/10/02 10:18:55;;;;;;;8.82;1.13;;;16.30;99.90;;;;;;4974548;28;20034;-70
2022/10/02 10:21:36;;;;;;;7.68;0.73;;;16.40;99.90;;;;;;4978189;28;20101;-68
2022/10/02 10:24:14;;;;;;;8.65;1.10;;;16.40;99.90;;;;;;4976786;28;20049;-69
2022/10/02 10:26:55;;;;;;;11.60;1.85;;;16.60;99.90;;;;;;4976682;28;20050;-70
2022/10/02 10:29:52;;;;;;;8.85;1.77;;;16.60;99.90;;;;;;4982235;28;20026;-71
2022/10/02 10:32:53;;;;;;;10.38;0.82;;;16.70;99.90;;;;;;4981805;28;20549;-69
2022/10/02 10:35:44;;;;;;;;;;;16.90;99.90;;;;;;4982402;28;20042;-68
2022/10/02 10:41:24;;;;;;;6.95;0.90;;;17.10;99.90;;;;;;4969420;28;20035;-70
2022/10/02 10:44:11;;;;;;;7.50;1.13;;;17.20;99.90;;;;;;4976636;28;20065;-69
2022/10/02 10:46:40;;;;;;;13.40;0.88;;;17.40;99.90;;;;;;4975870;28;20037;-72
2022/10/02 10:49:25;;;;;;;5.70;1.05;;;17.40;99.90;;;;;;4981628;28;20038;-69
2022/10/02 10:52:12;;;;;;;3.03;0.85;;;17.50;99.90;;;;;;4975938;28;20050;-69
2022/10/02 10:54:53;;;;;;;5.50;1.17;;;17.60;99.90;;;;;;4964275;28;20136;-73
2022/10/02 10:57:24;;;;;;;;;;;17.60;99.90;;;;;;4977830;28;20038;-71
2022/10/02 11:00:08;;;;;;;6.82;0.95;;;17.50;99.90;;;;;;4978545;28;19922;-68
2022/10/02 11:03:03;;;;;;;6.13;1.23;;;17.60;99.90;;;;;;4974249;28;20043;-71
2022/10/02 11:05:56;;;;;;;7.82;1.27;;;17.70;99.90;;;;;;4973880;28;20034;-71
2022/10/02 11:08:53;;;;;;;8.70;0.70;;;17.70;99.90;;;;;;4980273;28;20531;-70
2022/10/02 11:11:37;;;;;;;5.45;1.00;;;17.60;99.90;;;;;;4980881;28;20376;-68
2022/10/02 11:14:04;;;;;;;9.05;1.52;;;17.50;99.90;;;;;;4980021;28;20918;-68
2022/10/02 11:16:51;;;;;;;2.05;0.65;;;17.50;99.90;;;;;;4978111;28;20563;-69
2022/10/02 11:19:40;;;;;;;6.45;1.00;;;17.60;99.90;;;;;;4978205;28;20043;-69
2022/10/02 11:22:48;;;;;;;13.80;1.23;;;17.60;99.90;;;;;;4974928;28;20069;-69
2022/10/02 11:25:45;;;;;;;5.32;0.57;;;17.60;99.90;;;;;;4977957;28;20068;-70
2022/10/02 11:28:21;;;;;;;5.40;0.82;;;17.50;99.90;;;;;;4982755;28;20047;-71
2022/10/02 11:31:15;;;;;;;3.63;0.70;;;17.60;99.90;;;;;;4987526;28;20041;-71
2022/10/02 11:34:11;;;;;;;4.18;0.60;;;17.70;99.90;;;;;;4986589;28;20130;-73
2022/10/02 11:37:06;;;;;;;4.55;0.68;;;17.90;99.90;;;;;;4982617;28;20075;-71
2022/10/02 11:40:11;;;;;;;6.47;1.13;;;18.10;99.90;;;;;;4978049;28;20046;-71
2022/10/02 11:43:18;;;;;;;8.38;0.88;;;18.00;99.90;;;;;;4984332;28;20038;-69
2022/10/02 11:46:02;;;;;;;8.10;0.93;;;17.70;99.90;;;;;;4964804;28;20070;-71
2022/10/02 11:48:32;;;;;;;8.73;0.73;;;17.40;99.90;;;;;;4971952;28;20042;-71
2022/10/02 11:51:51;;;;;;;11.48;1.05;;;17.10;99.90;;;;;;4987115;28;20042;-69
2022/10/02 11:54:16;;;;;;;6.05;0.77;;;16.90;99.90;;;;;;4965453;28;20089;-72
2022/10/02 11:56:52;;;;;;;7.88;1.60;;;16.80;99.90;;;;;;4983068;28;20031;-71
2022/10/02 11:59:53;;;;;;;5.00;1.00;;;16.80;99.90;;;;;;4983338;28;20038;-70
2022/10/02 12:02:56;;;;;;;7.53;1.65;;;16.90;99.90;;;;;;4971716;28;20399;-70
2022/10/02 12:05:41;;;;;;;11.52;1.90;;;16.80;99.90;;;;;;4981031;28;20039;-69
2022/10/02 12:08:20;;;;;;;8.05;0.95;;;16.70;99.90;;;;;;4977890;28;20561;-70
2022/10/02 12:10:55;;;;;;;6.15;1.52;;;16.70;99.90;;;;;;4983361;28;20043;-70
2022/10/02 12:14:01;;;;;;;3.13;0.57;;;16.70;99.90;;;;;;4981800;28;20042;-71
2022/10/02 12:17:09;;;;;;;6.95;1.08;;;16.70;99.90;;;;;;4976516;28;20061;-69
2022/10/02 12:29:02;;;;;;;6.95;0.80;;;17.10;99.90;;;;;;4986359;28;20042;-71
2022/10/02 12:31:50;;;;;;;5.80;0.68;;;17.20;99.90;;;;;;4983980;28;20724;-70
2022/10/02 12:34:33;;;;;;;8.70;0.60;;;17.20;99.90;;;;;;4978248;28;20034;-70
2022/10/02 12:37:11;;;;;;;4.53;0.90;;;17.10;99.90;;;;;;4981458;28;20050;-72
2022/10/02 12:40:00;;;;;;;8.23;0.70;;;17.10;99.90;;;;;;4985265;28;20131;-72
2022/10/02 12:43:04;;;;;;;4.50;0.90;;;17.00;99.90;;;;;;4959601;28;20061;-72
2022/10/02 12:45:57;;;;;;;6.53;1.05;;;17.00;99.90;;;;;;4974586;28;20043;-71
2022/10/02 12:48:49;;;;;;;6.13;0.70;;;16.90;99.90;;;;;;4976322;28;20050;-71
2022/10/02 12:51:36;;;;;;;7.20;1.00;;;16.80;99.90;;;;;;4976072;28;20046;-71
2022/10/02 12:54:49;;;;;;;7.50;0.80;;;16.90;99.90;;;;;;4972337;28;20030;-70
2022/10/02 12:58:02;;;;;;;6.45;0.80;;;16.90;99.90;;;;;;4975387;28;20047;-70
2022/10/02 13:01:02;;;;;;;5.82;0.98;;;16.90;99.90;;;;;;4973402;28;20042;-69
2022/10/02 13:04:04;;;;;;;5.45;0.55;;;16.90;99.90;;;;;;4973279;28;20732;-70
2022/10/02 13:06:59;;;;;;;4.68;0.90;;;17.00;99.90;;;;;;4973531;28;20651;-69
2022/10/02 13:09:35;;;;;;;5.88;0.73;;;17.00;99.90;;;;;;4976796;28;20030;-69
2022/10/02 13:12:31;;;;;;;6.13;1.08;;;17.10;99.90;;;;;;4974478;28;20046;-70
2022/10/02 13:15:24;;;;;;;3.58;0.50;;;17.20;99.90;;;;;;4971586;28;20495;-71
2022/10/02 13:18:18;;;;;;;6.43;1.10;;;17.20;99.90;;;;;;4971434;28;20150;-69
2022/10/02 13:20:43;;;;;;;7.18;0.82;;;17.20;99.90;;;;;;4978713;28;20095;-70
2022/10/02 13:23:35;;;;;;;8.13;1.52;;;17.20;99.90;;;;;;4973792;28;20047;-69
2022/10/02 13:26:15;;;;;;;4.93;0.60;;;17.20;99.90;;;;;;4976166;28;20038;-71
2022/10/02 13:29:11;;;;;;;5.53;0.77;;;17.30;99.90;;;;;;4975048;28;20178;-70
2022/10/02 13:32:12;;;;;;;7.85;1.30;;;17.30;99.90;;;;;;4965891;28;20043;-69
2022/10/02 13:34:56;;;;;;;5.13;0.95;;;17.20;99.90;;;;;;4974020;28;20390;-72
2022/10/02 13:37:27;;;;;;;8.80;0.98;;;17.10;99.90;;;;;;4979016;28;20045;-70
2022/10/02 13:40:25;;;;;;;6.20;1.23;;;17.10;99.90;;;;;;4980744;28;20419;-71
2022/10/02 13:43:41;;;;;;;4.93;0.85;;;17.00;99.90;;;;;;4953435;28;20061;-69
2022/10/02 13:46:12;;;;;;;10.55;1.08;;;17.00;99.90;;;;;;4940429;29;20416;-69
2022/10/02 13:48:55;;;;;;;8.75;1.70;;;16.90;99.90;;;;;;4976411;28;20038;-69
2022/10/02 13:51:30;;;;;;;8.27;0.95;;;16.90;99.90;;;;;;4974808;28;20054;-72
2022/10/02 13:54:01;;;;;;;6.90;1.05;;;16.80;99.90;;;;;;4979615;28;20126;-68
2022/10/02 13:56:36;;;;;;;8.43;1.05;;;16.80;99.90;;;;;;4982016;28;20046;-69
2022/10/02 13:59:15;;;;;;;7.45;0.70;;;16.80;99.90;;;;;;4979023;28;20415;-70
2022/10/02 14:02:03;;;;;;;8.88;1.20;;;16.80;99.90;;;;;;4976491;28;20049;-70
2022/10/02 14:05:06;;;;;;;8.98;1.27;;;16.70;99.90;;;;;;4981385;28;20486;-72
2022/10/02 14:07:36;;;;;;;10.90;1.08;;;16.70;99.90;;;;;;4969856;28;20058;-69
2022/10/02 14:10:21;;;;;;;12.70;1.42;;;16.60;99.90;;;;;;4977486;28;20713;-70
2022/10/02 14:13:06;;;;;;;9.55;0.85;;;16.50;99.90;;;;;;4971536;28;20043;-71